Flight Track Log - Related Links

Times and Time Zones

All times are in EDT time to prevent confusion due to time zone crossing. See the CFS791 flight status page for this flight to view local times or setup timezone preferences in your user account.

Time Position Orientation Groundspeed Altitude Reporting Facility
EDT Latitude Longitude Course Direction KTS MPH feet Rate Location/Type
Tue 08:55:58 AM 35.0431 -106.6131 11° North 105 121 5,700  Level Albuquerque Center
Tue 08:56:16 AM 35.0511 -106.6111 11° North 111 128 6,000 623 Climbing Albuquerque Center
Tue 08:57:15 AM 35.0742 -106.6194 344° North 108 124 6,500 650 Climbing Albuquerque Center
Tue 08:58:16 AM 35.1033 -106.6575 313° West 123 142 7,300 689 Climbing Albuquerque Center
Tue 08:59:17 AM 35.1283 -106.6878 315° West 126 145 7,900 541 Climbing Albuquerque Center
Tue 09:00:18 AM 35.1561 -106.7192 317° Northwest 132 152 8,400 496 Climbing Albuquerque Center
Tue 09:01:18 AM 35.1856 -106.7481 321° Northwest 135 155 8,900 496 Climbing Albuquerque Center
Tue 09:02:19 AM 35.2161 -106.7775 322° Northwest 138 159 9,400 496 Climbing Albuquerque Center
Tue 09:03:19 AM 35.2461 -106.8072 321° Northwest 139 160 9,900 496 Climbing Albuquerque Center
Tue 09:04:20 AM 35.2764 -106.8372 321° Northwest 140 161 10,400 541 Climbing Albuquerque Center
Tue 09:05:21 AM 35.3069 -106.8664 322° Northwest 140 161 11,000 496 Climbing Albuquerque Center
Tue 09:06:21 AM 35.3375 -106.8944 323° Northwest 138 159 11,400 446 Climbing Albuquerque Center
Tue 09:07:22 AM 35.3700 -106.9217 326° Northwest 139 160 11,900 246 Climbing Albuquerque Center
Tue 09:08:23 AM 35.4131 -106.9358 345° North 155 178 11,900  Level Albuquerque Center
Tue 09:09:23 AM 35.4594 -106.9506 346° North 168 193 11,900  Level Albuquerque Center
Tue 09:10:24 AM 35.5047 -106.9644 346° North 169 194 11,900  Level Albuquerque Center
Tue 09:11:25 AM 35.5458 -106.9861 337° Northwest 164 189 11,900  Level Albuquerque Center
Tue 09:12:26 AM 35.5778 -107.0208 319° Northwest 154 177 11,900  Level Albuquerque Center
Tue 09:13:26 AM 35.6114 -107.0531 322° Northwest 153 176 11,900  Level Albuquerque Center
Tue 09:14:27 AM 35.6519 -107.0883 325° Northwest 151 174 11,900  Level Albuquerque Center
Tue 09:15:29 AM 35.6844 -107.1203 321° Northwest 149 171 11,900  Level Albuquerque Center
Tue 09:16:29 AM 35.7181 -107.1494 325° Northwest 148 170 11,900  Level Albuquerque Center
Tue 09:17:29 AM 35.7553 -107.1831 324° Northwest 153 176 11,900  Level Albuquerque Center
Tue 09:18:30 AM 35.7886 -107.2128 324° Northwest 155 178 11,900  Level Albuquerque Center
Tue 09:19:31 AM 35.8194 -107.2428 322° Northwest 150 173 11,900  Level Albuquerque Center
Tue 09:20:32 AM 35.8586 -107.2772 325° Northwest 152 175 11,900  Level Albuquerque Center
Tue 09:21:33 AM 35.8917 -107.3072 324° Northwest 154 177 11,900  Level Albuquerque Center
Tue 09:22:34 AM 35.9244 -107.3372 323° Northwest 153 176 11,900  Level Albuquerque Center
Tue 09:23:34 AM 35.9622 -107.3733 322° Northwest 153 176 11,900  Level Albuquerque Center
Tue 09:24:35 AM 35.9953 -107.4031 324° Northwest 153 176 11,900  Level Albuquerque Center
Tue 09:25:36 AM 36.0300 -107.4342 324° Northwest 158 182 11,900  Level Albuquerque Center
Tue 09:26:37 AM 36.0681 -107.4683 324° Northwest 154 177 11,900  Level Albuquerque Center
Tue 09:27:38 AM 36.1003 -107.4992 322° Northwest 153 176 11,900  Level Albuquerque Center
Tue 09:28:39 AM 36.1353 -107.5294 325° Northwest 157 181 11,900  Level Albuquerque Center
Tue 09:29:40 AM 36.1753 -107.5653 324° Northwest 158 182 11,900  Level Albuquerque Center
Tue 09:30:41 AM 36.2097 -107.5961 324° Northwest 159 183 11,900  Level Albuquerque Center
Tue 09:31:42 AM 36.2433 -107.6278 323° Northwest 159 183 11,900 -295 Level Albuquerque Center
Tue 09:32:43 AM 36.2844 -107.6656 323° Northwest 164 189 11,300 -541 Descending Albuquerque Center
Tue 09:33:44 AM 36.3278 -107.6978 329° Northwest 180 207 10,800 -541 Descending Albuquerque Center
Tue 09:34:45 AM 36.3689 -107.7406 320° Northwest 175 201 10,200 -440 Descending Albuquerque Center
Tue 09:35:33 AM 36.3992 -107.7692 323° Northwest 174 200 10,000 -99 Descending Denver Center
Tue 09:36:46 AM 36.4325 -107.8028 321° Northwest 169 194 10,000  Level Denver Center
Tue 09:37:47 AM 36.4700 -107.8383 323° Northwest 158 182 10,000  Level Denver Center
Tue 09:38:48 AM 36.5097 -107.8750 323° Northwest 157 181 10,000  Level Denver Center
Tue 09:39:49 AM 36.5439 -107.9072 323° Northwest 159 183 10,000  Level Denver Center
Tue 09:40:50 AM 36.5844 -107.9442 324° Northwest 160 184 10,000  Level Denver Center
Tue 09:41:51 AM 36.6189 -107.9775 322° Northwest 162 186 10,000 -98 Level Denver Center
Tue 09:42:52 AM 36.6522 -108.0108 321° Northwest 162 186 9,800 -541 Descending Denver Center
Tue 09:43:53 AM 36.6742 -108.0728 294° West 172 198 8,900 -787 Descending Denver Center
Tue 09:44:54 AM 36.6972 -108.1264 298° West 178 205 8,200 -787 Descending Denver Center
Tue 09:45:55 AM 36.7186 -108.1797 297° West 180 207 7,300 -780 Descending Denver Center
Tue 09:46:57 AM 36.7247 -108.2483 276° West 181 208 6,600 -780 Descending Denver Center
Tue 09:47:58 AM 36.7417 -108.2506 354° North 142 163 5,700 -885 Descending Denver Center

Login

Don't have an account? Register now (free) for customized features, flight alerts, and more!